地図

経路データ

SID SEASON NUMBER BASIN SUBBASIN NAME ISO_TIME NATURE LAT LON WMO_WIND WMO_PRES WMO_AGENCY TRACK_TYPE DIST2LAND LANDFALL IFLAG USA_AGENCY USA_ATCF_ID USA_LAT USA_LON USA_RECORD USA_STATUS USA_WIND USA_PRES USA_SSHS USA_R34_NE USA_R34_SE USA_R34_SW USA_R34_NW USA_R50_NE USA_R50_SE USA_R50_SW USA_R50_NW USA_R64_NE USA_R64_SE USA_R64_SW USA_R64_NW USA_POCI USA_ROCI USA_RMW USA_EYE TOKYO_LAT TOKYO_LON TOKYO_GRADE TOKYO_WIND TOKYO_PRES TOKYO_R50_DIR TOKYO_R50_LONG TOKYO_R50_SHORT TOKYO_R30_DIR TOKYO_R30_LONG TOKYO_R30_SHORT TOKYO_LAND CMA_LAT CMA_LON CMA_CAT CMA_WIND CMA_PRES HKO_LAT HKO_LON HKO_CAT HKO_WIND HKO_PRES NEWDELHI_LAT NEWDELHI_LON NEWDELHI_GRADE NEWDELHI_WIND NEWDELHI_PRES NEWDELHI_CI NEWDELHI_DP NEWDELHI_POCI REUNION_LAT REUNION_LON REUNION_TYPE REUNION_WIND REUNION_PRES REUNION_TNUM REUNION_CI REUNION_RMW REUNION_R34_NE REUNION_R34_SE REUNION_R34_SW REUNION_R34_NW REUNION_R50_NE REUNION_R50_SE REUNION_R50_SW REUNION_R50_NW REUNION_R64_NE REUNION_R64_SE REUNION_R64_SW REUNION_R64_NW BOM_LAT BOM_LON BOM_TYPE BOM_WIND BOM_PRES BOM_TNUM BOM_CI BOM_RMW BOM_R34_NE BOM_R34_SE BOM_R34_SW BOM_R34_NW BOM_R50_NE BOM_R50_SE BOM_R50_SW BOM_R50_NW BOM_R64_NE BOM_R64_SE BOM_R64_SW BOM_R64_NW BOM_ROCI BOM_POCI BOM_EYE BOM_POS_METHOD BOM_PRES_METHOD NADI_LAT NADI_LON NADI_CAT NADI_WIND NADI_PRES WELLINGTON_LAT WELLINGTON_LON WELLINGTON_WIND WELLINGTON_PRES DS824_LAT DS824_LON DS824_STAGE DS824_WIND DS824_PRES TD9636_LAT TD9636_LON TD9636_STAGE TD9636_WIND TD9636_PRES TD9635_LAT TD9635_LON TD9635_WIND TD9635_PRES TD9635_ROCI NEUMANN_LAT NEUMANN_LON NEUMANN_CLASS NEUMANN_WIND NEUMANN_PRES MLC_LAT MLC_LON MLC_CLASS MLC_WIND MLC_PRES USA_GUST BOM_GUST BOM_GUST_PER REUNION_GUST REUNION_GUST_PER USA_SEAHGT USA_SEARAD_NE USA_SEARAD_SE USA_SEARAD_SW USA_SEARAD_NW STORM_SPEED STORM_DIR
1888346S19066 1889 64 SI MM NOT_NAMED 1888-12-11 06:00:00 NR -18.7000 66.1000 reunion main 888 885 _____O________ -1 -18.7000 66.1000 99 9.90000 3 0
1888346S19066 1889 64 SI MM NOT_NAMED 1888-12-11 09:00:00 NR -18.8535 66.1051 main 883 881 _____P________ -1 -18.8535 66.1051 99 3 175
1888346S19066 1889 64 SI MM NOT_NAMED 1888-12-11 12:00:00 NR -19.0078 66.1109 main 881 877 _____P________ -1 -19.0078 66.1109 99 3 175
1888346S19066 1889 64 SI MM NOT_NAMED 1888-12-11 15:00:00 NR -19.1639 66.1182 main 877 875 _____P________ -1 -19.1639 66.1182 99 3 0
1888346S19066 1889 64 SI MM NOT_NAMED 1888-12-11 18:00:00 NR -19.3225 66.1275 main 875 872 _____P________ -1 -19.3225 66.1275 99 3 176
1888346S19066 1889 64 SI MM NOT_NAMED 1888-12-11 21:00:00 NR -19.4846 66.1396 main 872 870 _____P________ -1 -19.4846 66.1396 99 3 178
1888346S19066 1889 64 SI MM NOT_NAMED 1888-12-12 00:00:00 NR -19.6510 66.1553 main 880 879 _____P________ -1 -19.6510 66.1553 99 3 173
1888346S19066 1889 64 SI MM NOT_NAMED 1888-12-12 03:00:00 NR -19.8225 66.1752 main 879 877 _____P________ -1 -19.8225 66.1752 99 4 173
1888346S19066 1889 64 SI MM NOT_NAMED 1888-12-12 06:00:00 NR -20.0000 66.2000 reunion main 877 876 _____O________ -1 -20.0000 66.2000 99 9.90000 4 170
1888346S19066 1889 64 SI MM NOT_NAMED 1888-12-12 09:00:00 NR -20.1841 66.2304 main 876 875 _____P________ -1 -20.1841 66.2304 99 4 171
1888346S19066 1889 64 SI MM NOT_NAMED 1888-12-12 12:00:00 NR -20.3744 66.2664 main 886 885 _____P________ -1 -20.3744 66.2664 99 4 170
1888346S19066 1889 64 SI MM NOT_NAMED 1888-12-12 15:00:00 NR -20.5699 66.3080 main 886 886 _____P________ -1 -20.5699 66.3080 99 4 169
1888346S19066 1889 64 SI MM NOT_NAMED 1888-12-12 18:00:00 NR -20.7700 66.3553 main 896 896 _____P________ -1 -20.7700 66.3553 99 4 167
1888346S19066 1889 64 SI MM NOT_NAMED 1888-12-12 21:00:00 NR -20.9738 66.4081 main 898 898 _____P________ -1 -20.9738 66.4081 99 4 165
1888346S19066 1889 64 SI MM NOT_NAMED 1888-12-13 00:00:00 NR -21.1806 66.4665 main 909 909 _____P________ -1 -21.1806 66.4665 99 4 165
1888346S19066 1889 64 SI MM NOT_NAMED 1888-12-13 03:00:00 NR -21.3896 66.5305 main 912 912 _____P________ -1 -21.3896 66.5305 99 4 164
1888346S19066 1889 64 SI MM NOT_NAMED 1888-12-13 06:00:00 NR -21.6000 66.6000 reunion main 925 925 _____O________ -1 -21.6000 66.6000 99 9.90000 4 163
1888346S19066 1889 64 SI MM NOT_NAMED 1888-12-13 09:00:00 NR -21.8116 66.6660 main 938 938 _____P________ -1 -21.8116 66.6660 99 4 163
1888346S19066 1889 64 SI MM NOT_NAMED 1888-12-13 12:00:00 NR -22.0258 66.7374 main 941 941 _____P________ -1 -22.0258 66.7374 99 5 162
1888346S19066 1889 64 SI MM NOT_NAMED 1888-12-13 15:00:00 NR -22.2414 66.8146 main 956 956 _____P________ -1 -22.2414 66.8146 99 5 161
1888346S19066 1889 64 SI MM NOT_NAMED 1888-12-13 18:00:00 NR -22.4573 66.8979 main 973 973 _____P________ -1 -22.4573 66.8979 99 5 160
1888346S19066 1889 64 SI MM NOT_NAMED 1888-12-13 21:00:00 NR -22.6723 66.9877 main 988 988 _____P________ -1 -22.6723 66.9877 99 5 158
1888346S19066 1889 64 SI MM NOT_NAMED 1888-12-14 00:00:00 NR -22.8851 67.0844 main 1003 1003 _____P________ -1 -22.8851 67.0844 99 5 156
1888346S19066 1889 64 SI MM NOT_NAMED 1888-12-14 03:00:00 NR -23.0948 67.1884 main 1019 1019 _____P________ -1 -23.0948 67.1884 99 5 154
1888346S19066 1889 64 SI MM NOT_NAMED 1888-12-14 06:00:00 NR -23.3000 67.3000 reunion main 1036 1036 _____O________ -1 -23.3000 67.3000 99 9.90000 5 153
1888346S19066 1889 64 SI MM NOT_NAMED 1888-12-14 09:00:00 NR -23.5025 67.4133 main 1052 1052 _____P________ -1 -23.5025 67.4133 99 5 152
1888346S19066 1889 64 SI MM NOT_NAMED 1888-12-14 12:00:00 NR -23.7014 67.5343 main 1069 1069 _____P________ -1 -23.7014 67.5343 99 5 150
1888346S19066 1889 64 SI MM NOT_NAMED 1888-12-14 15:00:00 NR -23.8965 67.6626 main 1095 1095 _____P________ -1 -23.8965 67.6626 99 5 148
1888346S19066 1889 64 SI MM NOT_NAMED 1888-12-14 18:00:00 NR -24.0873 67.7978 main 1112 1112 _____P________ -1 -24.0873 67.7978 99 5 146
1888346S19066 1889 64 SI MM NOT_NAMED 1888-12-14 21:00:00 NR -24.2734 67.9396 main 1130 1130 _____P________ -1 -24.2734 67.9396 99 5 144
1888346S19066 1889 64 SI MM NOT_NAMED 1888-12-15 00:00:00 NR -24.4545 68.0875 main 1157 1157 _____P________ -1 -24.4545 68.0875 99 5 143
1888346S19066 1889 64 SI MM NOT_NAMED 1888-12-15 03:00:00 NR -24.6301 68.2411 main 1170 1170 _____P________ -1 -24.6301 68.2411 99 4 141
1888346S19066 1889 64 SI MM NOT_NAMED 1888-12-15 06:00:00 NR -24.8000 68.4000 reunion main 1197 1197 _____O________ -1 -24.8000 68.4000 99 9.90000 5 140
1888346S19066 1889 64 SI MM NOT_NAMED 1888-12-15 09:00:00 NR -24.9755 68.5648 main 1224 1224 _____P________ -1 -24.9755 68.5648 99 5 139
1888346S19066 1889 64 SI MM NOT_NAMED 1888-12-15 12:00:00 NR -25.1460 68.7364 main 1238 1238 _____P________ -1 -25.1460 68.7364 99 5 137
1888346S19066 1889 64 SI MM NOT_NAMED 1888-12-15 15:00:00 NR -25.3105 68.9128 main 1265 1265 _____P________ -1 -25.3105 68.9128 99 5 135
1888346S19066 1889 64 SI MM NOT_NAMED 1888-12-15 18:00:00 NR -25.4676 69.0922 main 1292 1292 _____P________ -1 -25.4676 69.0922 99 4 133
1888346S19066 1889 64 SI MM NOT_NAMED 1888-12-15 21:00:00 NR -25.6163 69.2726 main 1315 1315 _____P________ -1 -25.6163 69.2726 99 4 132
1888346S19066 1889 64 SI MM NOT_NAMED 1888-12-16 00:00:00 NR -25.7554 69.4520 main 1342 1342 _____P________ -1 -25.7554 69.4520 99 4 130
1888346S19066 1889 64 SI MM NOT_NAMED 1888-12-16 03:00:00 NR -25.8837 69.6284 main 1356 1356 _____P________ -1 -25.8837 69.6284 99 4 128
1888346S19066 1889 64 SI MM NOT_NAMED 1888-12-16 06:00:00 NR -26.0000 69.8000 reunion main 1379 1379 _____O________ -1 -26.0000 69.8000 99 9.90000 4 126
1888346S19066 1889 64 SI MM NOT_NAMED 1888-12-16 09:00:00 NR -26.1037 69.9651 main 1401 1401 _____P________ -1 -26.1037 69.9651 99 4 124
1888346S19066 1889 64 SI MM NOT_NAMED 1888-12-16 12:00:00 NR -26.1960 70.1242 main 1415 1415 _____P________ -1 -26.1960 70.1242 99 3 122
1888346S19066 1889 64 SI MM NOT_NAMED 1888-12-16 15:00:00 NR -26.2784 70.2781 main 1438 1438 _____P________ -1 -26.2784 70.2781 99 3 120
1888346S19066 1889 64 SI MM NOT_NAMED 1888-12-16 18:00:00 NR -26.3527 70.4276 main 1451 1451 _____P________ -1 -26.3527 70.4276 99 3 118
1888346S19066 1889 64 SI MM NOT_NAMED 1888-12-16 21:00:00 NR -26.4203 70.5737 main 1470 1470 _____P________ -1 -26.4203 70.5737 99 3 117
1888346S19066 1889 64 SI MM NOT_NAMED 1888-12-17 00:00:00 NR -26.4830 70.7172 main 1483 1483 _____P________ -1 -26.4830 70.7172 99 3 115
1888346S19066 1889 64 SI MM NOT_NAMED 1888-12-17 03:00:00 NR -26.5424 70.8590 main 1501 1501 _____P________ -1 -26.5424 70.8590 99 3 115
1888346S19066 1889 64 SI MM NOT_NAMED 1888-12-17 06:00:00 NR -26.6000 71.0000 reunion main 1515 _____O________ -1 -26.6000 71.0000 99 9.90000 3 115

IBTrACS Databaseについて

本データベースは、米国NOAAが公開する1842年以降の世界の熱帯低気圧のベストトラックデータアーカイブInternational Best Track Archive for Climate Stewardship (IBTrACS)を、ウェブで閲覧しやすい形式に変換したものです。

最終更新日:2021-12-03